Home > Products > Valid Products > TAF

000
FTUS45 KPSR 190800 AAA
TAFPHX
TAF AMD
KPHX 190855Z 1909/2006 10005KT P6SM SKC
     FM192100 27005KT P6SM FEW080 SCT200
     FM200400 11004KT P6SM BKN200=



000
FTUS45 KPSR 190500
TAFIWA
TAF
KIWA 190525Z 1906/2006 12005KT P6SM FEW050
     FM192000 28004KT P6SM FEW080 SCT200
     FM200300 11005KT P6SM BKN200
      AMD LTD TO CLD VIS AND WIND TIL 191300=



000
FTUS45 KPSR 190500
TAFIWA
TAF
KIWA 190525Z 1906/2006 12005KT P6SM FEW050
     FM192000 28004KT P6SM FEW080 SCT200
     FM200300 11005KT P6SM BKN200
      AMD LTD TO CLD VIS AND WIND TIL 191300=



000
FTUS45 KPSR 190500
TAFIPL
TAF
KIPL 190525Z 1906/2006 27005KT P6SM FEW250
     FM191600 VRB04KT P6SM BKN180=



000
FTUS45 KPSR 190500
TAFBLH
TAF
KBLH 190525Z 1906/2006 32007KT P6SM FEW040 FEW250
     FM191800 VRB05KT P6SM FEW080 BKN200=



000
FTUS45 KPSR 190500
TAFPHX
TAF
KPHX 190525Z 1906/2006 10005KT P6SM SKC
     FM192100 27005KT P6SM FEW080 SCT200
     FM200400 11004KT P6SM BKN200=



000
FTUS45 KPSR 190200 AAA
TAFPHX
TAF AMD
KPHX 190259Z 1903/1924 26004KT P6SM SKC
     FM190400 10005KT P6SM FEW030
     FM192100 22004KT P6SM FEW080=



000
FTUS45 KPSR 182300
TAFIPL
TAF
KIPL 182324Z 1900/1924 34006KT P6SM FEW080
     FM190500 27005KT P6SM SKC
     FM191600 VRB04KT P6SM SKC=



000
FTUS45 KPSR 182300
TAFBLH
TAF
KBLH 182324Z 1900/1924 35007KT P6SM SCT040
     FM191800 VRB05KT P6SM FEW080=



000
FTUS45 KPSR 182300
TAFIWA
TAF
KIWA 182324Z 1900/1924 31006KT P6SM SCT050 SCT070
     FM190400 12005KT P6SM FEW050 FEW200
     FM192200 28004KT P6SM FEW080
      AMD LTD TO CLD VIS AND WIND 1903/1913=



000
FTUS45 KPSR 182300
TAFPHX
TAF
KPHX 182324Z 1900/1924 28006KT P6SM SCT050 SCT100
     FM190400 10005KT P6SM FEW050 FEW200
     FM192100 22004KT P6SM FEW080=



000
FTUS45 KPSR 182000 AAA
TAFPHX
TAF AMD
KPHX 182052Z 1821/1918 26006KT P6SM SCT050 SCT100
     FM190400 10005KT P6SM FEW050 SCT200=



000
FTUS45 KPSR 181700
TAFIWA
TAF
KIWA 181731Z 1818/1918 30004KT P6SM VCSH SCT030 BKN050 OVC100
     FM182200 31006KT P6SM SCT050 SCT100
     FM190400 12005KT P6SM FEW050 SCT200=



000
FTUS45 KPSR 181700
TAFIWA
TAF
KIWA 181731Z 1818/1918 30004KT P6SM VCSH SCT030 BKN050 OVC100
     FM182200 31006KT P6SM SCT050 SCT100
     FM190400 12005KT P6SM FEW050 SCT200=



000
FTUS45 KPSR 181700
TAFIPL
TAF
KIPL 181731Z 1818/1918 34005KT P6SM FEW080
     FM190500 27005KT P6SM SKC=



000
FTUS45 KPSR 181700
TAFBLH
TAF
KBLH 181731Z 1818/1918 VRB03KT P6SM SCT025 SCT080
     FM182000 35007KT P6SM SCT050=



000
FTUS45 KPSR 181700
TAFPHX
TAF
KPHX 181731Z 1818/1918 25004KT P6SM VCSH SCT040 BKN080 OVC100
     FM182100 26006KT P6SM SCT050 SCT100
     FM190400 10005KT P6SM FEW050 SCT200=



000
FTUS45 KPSR 181400 AAA
TAFPHX
TAF AMD
KPHX 181437Z 1815/1912 10005KT P6SM VCSH SCT040 BKN080 OVC100
     FM182000 25006KT P6SM SCT050 SCT100
     FM190400 10005KT P6SM FEW050 SCT200=



000
FTUS45 KPSR 181100
TAFIWA
TAF
KIWA 181139Z 1812/1912 12004KT P6SM SCT030 BKN050 BKN080
     FM181500 13005KT P6SM VCSH SCT030 BKN050 OVC100
     FM182000 29004KT P6SM SCT050 SCT100
     FM190400 12005KT P6SM FEW050 SCT200
      AMD LTD TO CLD VIS AND WIND TIL 181300=



000
FTUS45 KPSR 181100
TAFIWA
TAF
KIWA 181139Z 1812/1912 12004KT P6SM SCT030 BKN050 BKN080
     FM181500 13005KT P6SM VCSH SCT030 BKN050 OVC100
     FM182000 29004KT P6SM SCT050 SCT100
     FM190400 12005KT P6SM FEW050 SCT200
      AMD LTD TO CLD VIS AND WIND TIL 181300=



000
FTUS45 KPSR 181100
TAFIPL
TAF
KIPL 181139Z 1812/1912 VRB04KT P6SM FEW150
     FM190500 27005KT P6SM SKC=



000
FTUS45 KPSR 181100
TAFPHX
TAF
KPHX 181139Z 1812/1912 10006KT P6SM SCT030 BKN050 OVC100
     FM181400 10005KT P6SM VCSH SCT040 BKN060 OVC100
     FM182000 25006KT P6SM SCT050 SCT100
     FM190400 10005KT P6SM FEW050 SCT200=



000
FTUS45 KPSR 181100
TAFBLH
TAF
KBLH 181139Z 1812/1912 34005KT P6SM SCT070 OVC100
     FM181600 34006KT P6SM FEW100=



000
FTUS45 KPSR 181000 AAB
TAFPHX
TAF AMD
KPHX 181056Z 1811/1906 10006KT P6SM SCT030 BKN050 OVC100
     FM181400 VRB05KT P6SM VCSH SCT040 BKN060 OVC100
     FM182100 25006KT P6SM SCT050 BKN080 BKN120
     FM190400 10005KT P6SM FEW200=



000
FTUS45 KPSR 181000 AAB
TAFPHX
TAF AMD
KPHX 181056Z 1811/1906 10006KT P6SM SCT030 BKN050 OVC100
     FM181400 VRB05KT P6SM VCSH SCT040 BKN060 OVC100
     FM182100 25006KT P6SM SCT050 BKN080 BKN120
     FM190400 10005KT P6SM FEW200=



000
FTUS45 KPSR 180800 AAA
TAFPHX
TAF AMD
KPHX 180847Z 1809/1906 10006KT P6SM BKN020 BKN050 OVC100
      TEMPO 1809/1813 FEW020 BKN060
     FM181400 VRB05KT P6SM VCSH SCT040 BKN060 OVC100
     FM182100 25006KT P6SM SCT050 BKN080 BKN120
     FM190400 10005KT P6SM FEW200=



000
FTUS45 KPSR 180800 AAA
TAFPHX
TAF AMD
KPHX 180847Z 1809/1906 10006KT P6SM BKN020 BKN050 OVC100
      TEMPO 1809/1813 FEW020 BKN060
     FM181400 VRB05KT P6SM VCSH SCT040 BKN060 OVC100
     FM182100 25006KT P6SM SCT050 BKN080 BKN120
     FM190400 10005KT P6SM FEW200=



000
FTUS45 KPSR 180500
TAFIWA
TAF
KIWA 180521Z 1806/1906 VRB04KT P6SM VCFG FEW030 BKN050 BKN080
     FM181600 11005KT P6SM -SHRA SCT030 BKN050 OVC100
     FM182100 29004KT P6SM VCSH SCT070 BKN120
     FM190400 12005KT P6SM FEW150
      AMD LTD TO CLD VIS AND WIND TIL 181300=



000
FTUS45 KPSR 180500
TAFIWA
TAF
KIWA 180521Z 1806/1906 VRB04KT P6SM VCFG FEW030 BKN050 BKN080
     FM181600 11005KT P6SM -SHRA SCT030 BKN050 OVC100
     FM182100 29004KT P6SM VCSH SCT070 BKN120
     FM190400 12005KT P6SM FEW150
      AMD LTD TO CLD VIS AND WIND TIL 181300=



000
FTUS45 KPSR 180500
TAFBLH
TAF
KBLH 180521Z 1806/1906 VRB03KT P6SM SCT060 BKN080 BKN120
     FM180900 34005KT P6SM VCSH SCT070 SCT100 BKN200
     FM181800 32006KT P6SM FEW120=



000
FTUS45 KPSR 180500
TAFPHX
TAF
KPHX 180521Z 1806/1906 10006KT P6SM SCT050 BKN060 BKN100
     FM181400 VRB05KT P6SM VCSH SCT040 BKN060 OVC100
     FM182100 25006KT P6SM SCT050 BKN080 BKN120
     FM190400 10005KT P6SM FEW200=



000
FTUS45 KPSR 180500
TAFIPL
TAF
KIPL 180521Z 1806/1906 VRB04KT 5SM BR VCSH SCT050 BKN140
     FM181000 28005KT 3SM BR FEW080 SCT120
     FM181700 35005KT P6SM SKC=



000
FTUS45 KPSR 180200 AAA
TAFPHX
TAF AMD
KPHX 180235Z 1803/1824 VRB04KT P6SM VCSH FEW030 BKN060 BKN180
     FM180700 10006KT P6SM SCT060 BKN080 BKN120
     FM181500 VRB05KT P6SM VCSH SCT040 BKN060 OVC120=



000
FTUS45 KPSR 180200 AAA
TAFIPL
TAF AMD
KIPL 180217Z 1802/1824 28007KT 6SM HZ BR SCT030 BKN090
     FM180400 27005KT 6SM BR VCSH SCT040 BKN060 BKN140
     FM181000 28006KT P6SM VCFG FEW080 SCT120
     FM181700 35005KT P6SM SKC=



000
FTUS45 KPSR 172300 CCA
TAFIWA
TAF COR
KIWA 172345Z 1800/1824 VRB05KT P6SM VCSH SCT040 BKN060 OVC100
     FM181600 VRB04KT P6SM -SHRA BKN050 BKN100
     FM182000 29004KT P6SM VCSH SCT070 BKN120
      AMD LTD TO CLD VIS AND WIND 1803/1813=



000
FTUS45 KPSR 172300 CCA
TAFIWA
TAF COR
KIWA 172345Z 1800/1824 VRB05KT P6SM VCSH SCT040 BKN060 OVC100
     FM181600 VRB04KT P6SM -SHRA BKN050 BKN100
     FM182000 29004KT P6SM VCSH SCT070 BKN120
      AMD LTD TO CLD VIS AND WIND 1803/1813=



000
FTUS45 KPSR 172300
TAFIWA
TAF
KIWA 172332Z 1800/1824 VRB05KT P6SM -SHRA SCT040 BKN060 OVC100
     FM180200 09004KT P6SM VCSH BKN050 BKN120 BKN180
     FM181600 VRB04KT P6SM -SHRA BKN050 BKN100
     FM182000 29004KT P6SM VCSH SCT070 BKN120
      AMD LTD TO CLD VIS AND WIND 1803/1813=



000
FTUS45 KPSR 172300
TAFPHX
TAF
KPHX 172332Z 1800/1824 25006KT P6SM SCT030 BKN060 OVC100
     FM180130 VRB04KT P6SM VCSH SCT070 BKN100 BKN180
     FM180700 10006KT P6SM SCT060 BKN080 BKN120=



000
FTUS45 KPSR 172300
TAFBLH
TAF
KBLH 172332Z 1800/1824 VRB06KT P6SM VCSH SCT040 BKN080 BKN140
     FM180130 VRB03KT P6SM SCT060 BKN080 BKN120
     FM180800 34005KT P6SM SCT070 SCT100 BKN200
     FM181800 32006KT P6SM FEW120=



000
FTUS45 KPSR 172300
TAFIPL
TAF
KIPL 172332Z 1800/1824 28007KT P6SM SCT030 BKN090
     FM180400 27005KT P6SM VCSH SCT040 BKN060 BKN140
     FM181000 28006KT P6SM FEW080 SCT120
     FM181700 35005KT P6SM SKC=



000
FTUS45 KPSR 172300
TAFIWA
TAF
KIWA 172332Z 1800/1824 VRB05KT P6SM -SHRA SCT040 BKN060 OVC100
     FM180200 09004KT P6SM VCSH BKN050 BKN120 BKN180
     FM181600 VRB04KT P6SM -SHRA BKN050 BKN100
     FM182000 29004KT P6SM VCSH SCT070 BKN120
      AMD LTD TO CLD VIS AND WIND 1803/1813=



000
FTUS45 KPSR 172200 AAB
TAFBLH
TAF AMD
KBLH 172208Z 1722/1818 21008KT P6SM SCT040 BKN080 BKN140
     FM180100 VRB03KT P6SM VCSH SCT060 BKN080 BKN120
     FM180500 26004KT P6SM SCT070 BKN100 BKN200=



000
FTUS45 KPSR 172100 AAA
TAFPHX
TAF AMD
KPHX 172101Z 1721/1818 21004KT P6SM VCSH BKN050 BKN090 OVC140
     FM180000 23006KT P6SM SCT030 BKN050 OVC120
     FM180300 12005KT P6SM VCSH SCT070 BKN100 BKN180
     FM180700 10006KT P6SM SCT060 BKN080 BKN120=



000
FTUS45 KPSR 171900 AAA
TAFBLH
TAF AMD
KBLH 171918Z 1719/1818 21008KT 6SM -RA SCT040 BKN080 BKN140
     FM180100 VRB03KT P6SM VCSH SCT060 BKN080 BKN120
     FM180500 26004KT P6SM SCT070 BKN100 BKN200=



000
FTUS45 KPSR 171900 AAA
TAFIPL
TAF AMD
KIPL 171909Z 1719/1818 28006KT 6SM BR BKN020 BKN040 OVC070
     FM172000 24007KT P6SM BKN040 BKN070 BKN090
     FM180500 27005KT P6SM VCSH SCT040 BKN060 BKN140=



000
FTUS45 KPSR 171900 AAA
TAFIWA
TAF AMD
KIWA 171903Z 1719/1818 20004KT P6SM VCSH SCT020 BKN040 BKN120
     FM180000 19005KT P6SM -RA SCT040 BKN060 OVC100
     FM180400 09004KT P6SM VCSH BKN050 BKN120 BKN180=



000
FTUS45 KPSR 171900 AAA
TAFIWA
TAF AMD
KIWA 171903Z 1719/1818 20004KT P6SM VCSH SCT020 BKN040 BKN120
     FM180000 19005KT P6SM -RA SCT040 BKN060 OVC100
     FM180400 09004KT P6SM VCSH BKN050 BKN120 BKN180=



000
FTUS45 KPSR 171700
TAFIPL
TAF
KIPL 171729Z 1718/1818 28006KT 6SM -RA BKN050 OVC070
     FM172000 24007KT P6SM VCSH SCT050 BKN070 BKN090
     FM180500 27005KT P6SM SCT040 BKN060 BKN140=



000
FTUS45 KPSR 171700
TAFBLH
TAF
KBLH 171729Z 1718/1818 22007KT 4SM -RA FEW020 BKN050 BKN100
     FM172000 22007KT 6SM -RA SCT040 BKN070 BKN140
     FM180100 VRB03KT P6SM VCSH SCT060 BKN080 BKN120
     FM180500 26004KT P6SM SCT070 BKN100 BKN200=



000
FTUS45 KPSR 171700
TAFPHX
TAF
KPHX 171729Z 1718/1818 16007KT P6SM VCSH SCT030 BKN050 OVC100
     FM172000 21004KT P6SM VCSH BKN050 BKN090 OVC140
     FM180000 23006KT P6SM -RA SCT030 BKN050 OVC120
     FM180300 12005KT P6SM VCSH SCT070 BKN100 BKN180
     FM180700 10006KT P6SM SCT060 BKN080 BKN120=



000
FTUS45 KPSR 171700
TAFIWA
TAF
KIWA 171729Z 1718/1818 14005KT P6SM SCT035 BKN060 OVC100
     FM172100 20004KT P6SM VCSH SCT040 BKN060 BKN120
     FM180000 19005KT P6SM -RA SCT040 BKN060 OVC100
     FM180400 09004KT P6SM VCSH BKN050 BKN120 BKN180
     FM180800 12005KT P6SM SCT060 BKN100 BKN140=



000
FTUS45 KPSR 171600 AAB
TAFIPL
TAF AMD
KIPL 171603Z 1716/1812 31007KT 5SM -RA SCT030 BKN050 OVC070
     FM171800 28006KT 6SM -RA SCT030 BKN050
     FM172000 24007KT P6SM FEW050 BKN080
     FM180500 27005KT P6SM SCT060 BKN140 BKN200=



000
FTUS45 KPSR 171500 AAA
TAFPHX
TAF AMD
KPHX 171509Z 1715/1812 12005KT P6SM FEW007 BKN050 OVC100
     FM171800 16007KT P6SM -RA SCT030 BKN050 OVC090
     FM172000 21004KT P6SM VCSH SCT050 BKN070 BKN120
     FM180300 12005KT P6SM SCT070 BKN150 BKN200=



000
FTUS45 KPSR 171500 AAA
TAFIPL
TAF AMD
KIPL 171504Z 1715/1812 12007KT 6SM BR SCT050 BKN070 BKN120
     FM171700 19008KT P6SM SCT040 BKN070 BKN100
     FM171900 24007KT P6SM FEW050 BKN080
     FM180500 27005KT P6SM SCT060 BKN140 BKN200=



000
FTUS45 KPSR 171400 AAA
TAFBLH
TAF AMD
KBLH 171459Z 1715/1812 VRB03KT 4SM BR FEW030 SCT040 BKN050
     FM171600 19006KT 6SM BR SCT040 BKN050 BKN100
     FM171800 22007KT P6SM VCSH FEW020 BKN050 BKN100
     FM180100 VRB03KT P6SM SCT060 BKN150 BKN200=



000
FTUS45 KPSR 171400 AAA
TAFIWA
TAF AMD
KIWA 171454Z 1715/1812 16005KT P6SM -SHRA BKN030 OVC060
      TEMPO 1715/1717 5SM -RA OVC025
     FM171800 VRB04KT P6SM SCT035 BKN040 OVC120
     FM172100 20004KT P6SM VCSH SCT040 BKN060 BKN120
     FM180200 12004KT P6SM SCT050 BKN150 BKN200=



000
FTUS45 KPSR 171400 AAA
TAFIWA
TAF AMD
KIWA 171454Z 1715/1812 16005KT P6SM -SHRA BKN030 OVC060
      TEMPO 1715/1717 5SM -RA OVC025
     FM171800 VRB04KT P6SM SCT035 BKN040 OVC120
     FM172100 20004KT P6SM VCSH SCT040 BKN060 BKN120
     FM180200 12004KT P6SM SCT050 BKN150 BKN200=



000
FTUS45 KPSR 171100
TAFIWA
TAF
KIWA 171120Z 1712/1812 16005KT P6SM -SHRA BKN050 OVC120
      TEMPO 1712/1715 5SM RA OVC040
     FM171800 VRB04KT P6SM SCT035 BKN050 OVC120
     FM172200 20004KT P6SM VCSH FEW040 BKN060 BKN120
     FM180200 12004KT P6SM SCT050 BKN150 BKN200
      AMD LTD TO CLD VIS AND WIND TIL 171300=



000
FTUS45 KPSR 171100
TAFIPL
TAF
KIPL 171120Z 1712/1812 16007KT P6SM VCSH SCT050 BKN070 BKN120
     FM171900 24007KT P6SM FEW050 BKN080
     FM180500 27005KT P6SM SCT060 BKN140 BKN200=



000
FTUS45 KPSR 171100
TAFIWA
TAF
KIWA 171120Z 1712/1812 16005KT P6SM -SHRA BKN050 OVC120
      TEMPO 1712/1715 5SM RA OVC040
     FM171800 VRB04KT P6SM SCT035 BKN050 OVC120
     FM172200 20004KT P6SM VCSH FEW040 BKN060 BKN120
     FM180200 12004KT P6SM SCT050 BKN150 BKN200
      AMD LTD TO CLD VIS AND WIND TIL 171300=



000
FTUS45 KPSR 171100
TAFPHX
TAF
KPHX 171120Z 1712/1812 13006KT P6SM -SHRA BKN060 OVC120
      TEMPO 1712/1715 BKN050 OVC080
     FM171500 10005KT P6SM SCT050 BKN070 OVC120
     FM172000 21004KT P6SM VCSH SCT050 BKN070 BKN120
     FM180300 12005KT P6SM SCT070 BKN150 BKN200=



000
FTUS45 KPSR 171100
TAFBLH
TAF
KBLH 171120Z 1712/1812 VRB03KT 5SM BR FEW030 BKN050
     FM171600 19006KT P6SM VCSH SCT040 BKN060 BKN100
     FM180100 VRB03KT P6SM SCT060 BKN150 BKN200=



000
FTUS45 KPSR 170800 AAA
TAFPHX
TAF AMD
KPHX 170900Z 1709/1806 13006KT P6SM -SHRA BKN060 OVC120
     FM171500 10005KT P6SM BKN070 OVC150
     FM172000 21004KT P6SM VCSH BKN070 BKN120
     FM180300 12005KT P6SM SCT070 BKN150=



000
FTUS45 KPSR 170800 AAA
TAFPHX
TAF AMD
KPHX 170900Z 1709/1806 13006KT P6SM -SHRA BKN060 OVC120
     FM171500 10005KT P6SM BKN070 OVC150
     FM172000 21004KT P6SM VCSH BKN070 BKN120
     FM180300 12005KT P6SM SCT070 BKN150=



000
FTUS45 KPSR 170700 AAA
TAFIWA
TAF AMD
KIWA 170725Z 1707/1806 10005KT P6SM VCSH SCT060 BKN090
     FM170900 10005KT P6SM -SHRA BKN050 OVC120
     FM171500 VRB04KT P6SM BKN060 OVC120
     FM172200 20004KT P6SM VCSH BKN060 BKN120
     FM180200 12004KT P6SM SCT050 BKN150
      AMD LTD TO CLD VIS AND WIND TIL 171300=



000
FTUS45 KPSR 170700 AAA
TAFIWA
TAF AMD
KIWA 170725Z 1707/1806 10005KT P6SM VCSH SCT060 BKN090
     FM170900 10005KT P6SM -SHRA BKN050 OVC120
     FM171500 VRB04KT P6SM BKN060 OVC120
     FM172200 20004KT P6SM VCSH BKN060 BKN120
     FM180200 12004KT P6SM SCT050 BKN150
      AMD LTD TO CLD VIS AND WIND TIL 171300=



000
FTUS45 KPSR 170700 AAA
TAFIWA
TAF AMD
KIWA 170725Z 1707/1806 10005KT P6SM VCSH SCT060 BKN090
     FM170900 10005KT P6SM -SHRA BKN050 OVC120
     FM171500 VRB04KT P6SM BKN060 OVC120
     FM172200 20004KT P6SM VCSH BKN060 BKN120
     FM180200 12004KT P6SM SCT050 BKN150
      AMD LTD TO CLD VIS AND WIND TIL 171300=



000
FTUS45 KPSR 170700 AAA
TAFIWA
TAF AMD
KIWA 170725Z 1707/1806 10005KT P6SM VCSH SCT060 BKN090
     FM170900 10005KT P6SM -SHRA BKN050 OVC120
     FM171500 VRB04KT P6SM BKN060 OVC120
     FM172200 20004KT P6SM VCSH BKN060 BKN120
     FM180200 12004KT P6SM SCT050 BKN150
      AMD LTD TO CLD VIS AND WIND TIL 171300=



000
FTUS45 KPSR 170500
TAFIWA
TAF
KIWA 170520Z 1706/1806 10005KT P6SM VCSH SCT100 BKN200
     FM170900 10005KT P6SM -SHRA BKN050 OVC120
     FM171500 VRB04KT P6SM BKN060 OVC120
     FM172200 20004KT P6SM VCSH BKN060 BKN120
     FM180200 12004KT P6SM SCT050 BKN150
      AMD LTD TO CLD VIS AND WIND TIL 171300=



000
FTUS45 KPSR 170500
TAFBLH
TAF
KBLH 170520Z 1706/1806 VRB03KT P6SM OVC070
     FM170800 VRB03KT 5SM BR OVC070
     FM171600 VRB04KT P6SM VCSH SCT060 BKN100
     FM180100 VRB03KT P6SM SCT060 BKN150=



000
FTUS45 KPSR 170500
TAFIWA
TAF
KIWA 170520Z 1706/1806 10005KT P6SM VCSH SCT100 BKN200
     FM170900 10005KT P6SM -SHRA BKN050 OVC120
     FM171500 VRB04KT P6SM BKN060 OVC120
     FM172200 20004KT P6SM VCSH BKN060 BKN120
     FM180200 12004KT P6SM SCT050 BKN150
      AMD LTD TO CLD VIS AND WIND TIL 171300=



000
FTUS45 KPSR 170500
TAFIPL
TAF
KIPL 170520Z 1706/1806 12007KT P6SM OVC070
     FM171900 24005KT P6SM BKN070=



000
FTUS45 KPSR 170500
TAFPHX
TAF
KPHX 170520Z 1706/1806 27004KT P6SM VCSH SCT120 BKN150
     FM170900 13006KT P6SM -SHRA BKN060 OVC150
     FM171500 10005KT P6SM BKN070 OVC150
     FM172000 21004KT P6SM VCSH BKN070 BKN120
     FM180300 12005KT P6SM SCT070 BKN150=



000
FTUS45 KPSR 170400 AAA
TAFBLH
TAF AMD
KBLH 170402Z 1704/1724 VRB03KT 5SM -RA OVC060
     FM170600 VRB03KT P6SM VCSH SCT050 OVC080
     FM171600 VRB04KT P6SM BKN100=



000
FTUS45 KPSR 170400 AAA
TAFBLH
TAF AMD
KBLH 170402Z 1704/1724 VRB03KT 5SM -RA OVC060
     FM170600 VRB03KT P6SM VCSH SCT050 OVC080
     FM171600 VRB04KT P6SM BKN100=



000
FTUS45 KPSR 170200 AAA
TAFPHX
TAF AMD
KPHX 170250Z 1703/1724 27004KT P6SM SCT110 BKN150 OVC200
     FM170600 13006KT P6SM VCSH SCT050 OVC080
     FM171300 10005KT P6SM VCSH BKN040 OVC080
     FM172100 21004KT P6SM BKN060 BKN120=



000
FTUS45 KPSR 162300
TAFPHX
TAF
KPHX 162321Z 1700/1724 27004KT P6SM SCT110 BKN150 OVC200
     FM170800 13006KT P6SM VCSH SCT050 OVC080
     FM171300 10005KT P6SM VCSH BKN040 OVC080
     FM172100 21004KT P6SM BKN060 BKN120=



000
FTUS45 KPSR 162300
TAFIPL
TAF
KIPL 162321Z 1700/1724 12004KT P6SM -RA OVC080
     FM171000 21006KT P6SM VCSH SCT050 OVC080
     FM171400 14005KT P6SM BKN100=



000
FTUS45 KPSR 162300
TAFBLH
TAF
KBLH 162321Z 1700/1724 VRB03KT P6SM VCSH BKN120
     FM170200 VRB03KT P6SM -RA OVC070
     FM171200 18005KT P6SM VCSH SCT050 OVC080
     FM171600 VRB04KT P6SM BKN100=



000
FTUS45 KPSR 162300
TAFIWA
TAF
KIWA 162321Z 1700/1724 31004KT P6SM SCT110 BKN150 OVC200
     FM170800 10005KT P6SM VCSH SCT050 OVC080
     FM171300 12006KT P6SM VCSH BKN040 OVC080
     FM172200 20004KT P6SM BKN050 BKN120
      AMD LTD TO CLD VIS AND WIND 1703/1713=



000
FTUS45 KPSR 162300
TAFIWA
TAF
KIWA 162321Z 1700/1724 31004KT P6SM SCT110 BKN150 OVC200
     FM170800 10005KT P6SM VCSH SCT050 OVC080
     FM171300 12006KT P6SM VCSH BKN040 OVC080
     FM172200 20004KT P6SM BKN050 BKN120
      AMD LTD TO CLD VIS AND WIND 1703/1713=



000
FTUS45 KPSR 162000 AAA
TAFPHX
TAF AMD
KPHX 162034Z 1621/1718 27004KT P6SM SCT110 BKN150 OVC200
     FM170800 13006KT P6SM VCSH SCT050 OVC080
     FM171300 10005KT P6SM VCSH BKN040=



000
FTUS45 KPSR 161700 RRA
TAFIWA
TAF
KIWA 161740Z 1618/1718 14005KT P6SM SCT150 OVC200
     FM162100 31004KT P6SM SCT110 BKN150 OVC200
     FM170300 10005KT P6SM VCSH SCT050 OVC080
     FM171300 12006KT P6SM VCSH BKN040=



000
FTUS45 KPSR 161700 RRA
TAFIPL
TAF
KIPL 161740Z 1618/1718 VRB05KT P6SM SCT150 BKN200
     FM162100 12004KT P6SM VCSH SCT070 BKN100
     FM170800 21006KT P6SM VCSH SCT050 OVC080=



000
FTUS45 KPSR 161700 RRA
TAFBLH
TAF
KBLH 161740Z 1618/1718 VRB04KT P6SM SCT150 BKN200
     FM162100 17004KT P6SM SCT070 BKN100
     FM170200 VRB03KT P6SM VCSH SCT060 BKN100
     FM170800 18005KT P6SM VCSH SCT050 OVC080=



000
FTUS45 KPSR 161700 RRA
TAFPHX
TAF
KPHX 161740Z 1618/1718 10005KT P6SM SCT150 OVC200
     FM162100 27004KT P6SM SCT110 BKN150 OVC200
     FM170800 13006KT P6SM VCSH SCT050 OVC080
     FM171300 10005KT P6SM VCSH BKN040=



000
FTUS45 KPSR 161700 RRA
TAFIWA
TAF
KIWA 161740Z 1618/1718 14005KT P6SM SCT150 OVC200
     FM162100 31004KT P6SM SCT110 BKN150 OVC200
     FM170300 10005KT P6SM VCSH SCT050 OVC080
     FM171300 12006KT P6SM VCSH BKN040=



000
FTUS45 KPSR 161500 AAA
TAFPHX
TAF AMD
KPHX 161508Z 1615/1712 10005KT P6SM SCT150 OVC200
     FM162200 26004KT P6SM BKN150 OVC200
     FM170800 09007KT P6SM SCT060 BKN100=



000
FTUS45 KPSR 161100
TAFIWA
TAF
KIWA 161120Z 1612/1712 12005KT P6SM OVC200
     FM162000 31004KT P6SM BKN140 OVC200
     FM170400 12005KT P6SM SCT070 OVC120
      AMD LTD TO CLD VIS AND WIND TIL 161300=



000
FTUS45 KPSR 161100
TAFPHX
TAF
KPHX 161120Z 1612/1712 10005KT P6SM OVC200
     FM162200 26004KT P6SM BKN150 OVC200
     FM170800 09007KT P6SM SCT060 BKN100=



000
FTUS45 KPSR 161100
TAFIPL
TAF
KIPL 161120Z 1612/1712 VRB05KT P6SM FEW150 BKN200
     FM162200 12004KT P6SM SCT060 BKN100
     FM170600 25006KT P6SM SCT050 OVC080=



000
FTUS45 KPSR 161100
TAFIWA
TAF
KIWA 161120Z 1612/1712 12005KT P6SM OVC200
     FM162000 31004KT P6SM BKN140 OVC200
     FM170400 12005KT P6SM SCT070 OVC120
      AMD LTD TO CLD VIS AND WIND TIL 161300=



000
FTUS45 KPSR 161100
TAFBLH
TAF
KBLH 161120Z 1612/1712 VRB04KT P6SM FEW150 BKN250
     FM162000 17004KT P6SM FEW070 BKN120
     FM170200 23005KT P6SM SCT060 BKN100
     FM170800 23006KT P6SM VCSH SCT050 OVC080=



    US Dept of Commerce
    National Oceanic and Atmospheric Administration
    National Weather Service
    1325 East West Highway
    Silver Spring, MD 20910
    Page Author: NWS Internet Services Team
Disclaimer
Information Quality
Credits
Glossary
Privacy Policy
Freedom of Information Act (FOIA)
About Us
Career Opportunities